createdAt,value
2023-04-07T00:00:32.218Z,14.40
2023-04-07T00:03:02.384Z,14.73
2023-04-07T00:05:30.361Z,15.33
2023-04-07T00:07:57.928Z,14.47
2023-04-07T00:10:25.852Z,13.73
2023-04-07T00:12:53.462Z,14.67
2023-04-07T00:15:21.167Z,15.53
2023-04-07T00:17:49.319Z,14.03
2023-04-07T00:20:17.161Z,15.70
2023-04-07T00:22:44.833Z,16.47
2023-04-07T00:25:12.436Z,14.00
2023-04-07T00:27:40.230Z,15.60
2023-04-07T00:30:08.496Z,14.20
2023-04-07T00:32:36.668Z,17.10
2023-04-07T00:35:05.048Z,15.80
2023-04-07T00:37:33.402Z,16.83
2023-04-07T00:40:01.020Z,16.73
2023-04-07T00:42:28.630Z,15.60
2023-04-07T00:44:56.227Z,15.80
2023-04-07T00:47:26.707Z,15.97
2023-04-07T00:49:57.158Z,15.13
2023-04-07T00:52:28.979Z,15.60
2023-04-07T00:54:56.605Z,15.63
2023-04-07T00:57:25.881Z,17.23
2023-04-07T00:59:54.901Z,16.37
2023-04-07T01:02:43.755Z,16.83
2023-04-07T01:05:23.452Z,15.10
2023-04-07T01:08:24.787Z,16.57
2023-04-07T01:11:04.013Z,16.73
2023-04-07T01:13:38.670Z,16.47
2023-04-07T01:16:12.373Z,16.77
2023-04-07T01:18:41.104Z,17.33
2023-04-07T01:21:17.441Z,17.63
2023-04-07T01:24:11.393Z,17.33
2023-04-07T01:26:40.440Z,17.10
2023-04-07T01:29:37.863Z,18.00
2023-04-07T01:32:08.343Z,16.73
2023-04-07T01:34:38.486Z,16.57
2023-04-07T01:37:07.868Z,17.83
2023-04-07T01:39:39.775Z,17.47
2023-04-07T01:42:08.190Z,17.93
2023-04-07T01:44:36.677Z,17.77
2023-04-07T01:47:07.006Z,18.03
2023-04-07T01:49:36.857Z,17.67
2023-04-07T01:52:05.557Z,17.50
2023-04-07T01:54:33.610Z,18.33
2023-04-07T01:57:01.617Z,17.97
2023-04-07T01:59:32.189Z,18.20
2023-04-07T02:01:59.934Z,18.43
2023-04-07T02:04:33.614Z,18.97
2023-04-07T02:07:10.699Z,18.20
2023-04-07T02:09:42.329Z,17.57
2023-04-07T02:12:12.980Z,18.20
2023-04-07T02:14:41.060Z,20.13
2023-04-07T02:17:14.653Z,18.97
2023-04-07T02:19:46.793Z,19.60
2023-04-07T02:22:16.466Z,18.27
2023-04-07T02:24:45.600Z,18.70
2023-04-07T02:27:14.103Z,19.57
2023-04-07T02:29:41.714Z,18.93
2023-04-07T02:32:09.466Z,21.20
2023-04-07T02:34:37.130Z,19.33
2023-04-07T02:37:04.752Z,18.20
2023-04-07T02:39:32.320Z,18.60
2023-04-07T02:42:00.238Z,20.03
2023-04-07T02:44:27.851Z,19.70
2023-04-07T02:46:57.817Z,19.20
2023-04-07T02:49:28.411Z,20.57
2023-04-07T02:51:58.304Z,20.23
2023-04-07T02:54:26.025Z,18.87
2023-04-07T02:56:53.613Z,19.00
2023-04-07T02:59:21.167Z,18.50
2023-04-07T03:01:48.808Z,18.50
2023-04-07T03:04:16.677Z,18.93
2023-04-07T03:06:44.267Z,18.53
2023-04-07T03:09:11.991Z,19.30
2023-04-07T03:11:39.623Z,19.47
2023-04-07T03:14:07.394Z,18.93
2023-04-07T03:16:35.237Z,18.87
2023-04-07T03:19:03.064Z,19.20
2023-04-07T03:21:31.804Z,19.43
2023-04-07T03:23:59.441Z,20.03
2023-04-07T03:26:27.615Z,19.27
2023-04-07T03:28:55.464Z,19.30
2023-04-07T03:31:23.221Z,19.33
2023-04-07T03:33:51.124Z,20.97
2023-04-07T03:36:19.352Z,21.20
2023-04-07T03:38:47.786Z,19.83
2023-04-07T03:41:15.500Z,21.60
2023-04-07T03:43:43.092Z,20.43
2023-04-07T03:46:10.939Z,21.90
2023-04-07T03:48:38.529Z,20.37
2023-04-07T03:51:08.951Z,19.63
2023-04-07T03:53:37.394Z,20.47
2023-04-07T03:56:05.595Z,21.23
2023-04-07T03:58:33.262Z,20.43
2023-04-07T04:01:01.050Z,19.77
2023-04-07T04:03:28.776Z,20.27
2023-04-07T04:05:56.553Z,19.63
2023-04-07T04:08:25.710Z,20.37
2023-04-07T04:10:53.421Z,20.93
2023-04-07T04:13:21.467Z,20.13
2023-04-07T04:15:49.133Z,19.83
2023-04-07T04:18:18.586Z,22.47
2023-04-07T04:20:47.895Z,20.83
2023-04-07T04:23:16.026Z,20.27
2023-04-07T04:25:43.572Z,22.03
2023-04-07T04:28:11.142Z,19.90
2023-04-07T04:30:38.704Z,19.63
2023-04-07T04:33:07.367Z,20.50
2023-04-07T04:35:35.251Z,20.10
2023-04-07T04:38:02.852Z,20.17
2023-04-07T04:40:30.477Z,20.97
2023-04-07T04:42:58.092Z,20.40
2023-04-07T04:45:25.754Z,20.23
2023-04-07T04:47:53.389Z,20.00
2023-04-07T04:50:21.099Z,20.93
2023-04-07T04:52:48.757Z,20.87
2023-04-07T04:55:16.444Z,20.13
2023-04-07T04:57:44.223Z,21.30
2023-04-07T05:00:12.580Z,20.47
2023-04-07T05:02:40.533Z,19.67
2023-04-07T05:05:08.593Z,20.37
2023-04-07T05:07:37.229Z,20.47
2023-04-07T05:10:05.401Z,20.33
2023-04-07T05:12:33.249Z,22.57
2023-04-07T05:15:00.828Z,20.57
2023-04-07T05:17:30.390Z,19.33
2023-04-07T05:19:58.029Z,22.83
2023-04-07T05:22:25.823Z,22.27
2023-04-07T05:24:53.435Z,22.40
2023-04-07T05:27:21.074Z,22.60
2023-04-07T05:29:48.688Z,22.87
2023-04-07T05:32:17.333Z,21.43
2023-04-07T05:34:44.904Z,21.93
2023-04-07T05:37:12.499Z,22.40
2023-04-07T05:39:41.618Z,19.97
2023-04-07T05:42:09.291Z,21.73
2023-04-07T05:44:36.902Z,22.27
2023-04-07T05:47:08.848Z,22.40
2023-04-07T05:49:37.323Z,21.60
2023-04-07T05:52:05.970Z,24.00
2023-04-07T05:54:33.690Z,25.17
2023-04-07T05:57:01.391Z,24.27
2023-04-07T05:59:29.013Z,21.57
2023-04-07T06:01:56.597Z,23.07
2023-04-07T06:04:24.296Z,25.00
2023-04-07T06:06:55.184Z,24.70
2023-04-07T06:09:23.591Z,23.80
2023-04-07T06:11:51.159Z,23.97
2023-04-07T06:14:18.858Z,23.90
2023-04-07T06:16:46.582Z,23.43
2023-04-07T06:19:14.227Z,25.23
2023-04-07T06:21:41.875Z,25.17
2023-04-07T06:24:09.505Z,25.53
2023-04-07T06:26:37.093Z,25.37
2023-04-07T06:29:04.775Z,25.27
2023-04-07T06:31:32.435Z,27.00
2023-04-07T06:34:00.093Z,24.93
2023-04-07T06:36:29.063Z,24.33
2023-04-07T06:38:56.714Z,25.10
2023-04-07T06:41:24.403Z,24.87
2023-04-07T06:43:52.102Z,24.17
2023-04-07T06:46:20.475Z,23.27
2023-04-07T06:48:48.199Z,24.70
2023-04-07T06:51:15.979Z,24.00
2023-04-07T06:53:44.279Z,24.00
2023-04-07T06:56:12.182Z,24.60
2023-04-07T06:58:40.513Z,23.77
2023-04-07T07:01:08.214Z,23.47
2023-04-07T07:03:36.100Z,24.00
2023-04-07T07:06:03.996Z,25.63
2023-04-07T07:08:32.125Z,25.17
2023-04-07T07:10:59.814Z,25.37
2023-04-07T07:13:31.245Z,26.07
2023-04-07T07:15:58.851Z,22.73
2023-04-07T07:18:26.714Z,23.07
2023-04-07T07:20:54.400Z,22.77
2023-04-07T07:23:21.974Z,24.57
2023-04-07T07:25:49.635Z,23.57
2023-04-07T07:28:21.759Z,22.90
2023-04-07T07:30:49.817Z,23.67
2023-04-07T07:33:17.658Z,22.63
2023-04-07T07:35:45.328Z,23.43
2023-04-07T07:38:12.950Z,23.10
2023-04-07T07:40:40.693Z,22.90
2023-04-07T07:43:08.331Z,22.73
2023-04-07T07:45:36.024Z,23.33
2023-04-07T07:48:07.424Z,23.57
2023-04-07T07:50:34.998Z,23.77
2023-04-07T07:53:02.800Z,23.37
2023-04-07T07:55:30.394Z,23.53
2023-04-07T07:57:58.005Z,23.27
2023-04-07T08:00:25.863Z,21.37
2023-04-07T08:02:53.587Z,23.60
2023-04-07T08:05:22.722Z,22.30
2023-04-07T08:07:52.153Z,22.47
2023-04-07T08:10:21.839Z,20.73
2023-04-07T08:12:49.627Z,19.80
2023-04-07T08:15:17.331Z,21.43
2023-04-07T08:17:45.033Z,20.87
2023-04-07T08:20:13.072Z,19.00
2023-04-07T08:22:44.173Z,19.97
2023-04-07T08:25:12.030Z,20.20
2023-04-07T08:27:39.925Z,20.37
2023-04-07T08:30:11.304Z,20.60
2023-04-07T08:32:46.807Z,20.10
2023-04-07T08:35:14.495Z,19.53
2023-04-07T08:37:44.272Z,22.03
2023-04-07T08:40:15.537Z,20.73
2023-04-07T08:42:47.033Z,21.57
2023-04-07T08:45:17.130Z,19.83
2023-04-07T08:47:46.508Z,20.43
2023-04-07T08:50:18.262Z,19.73
2023-04-07T08:52:49.587Z,19.57
2023-04-07T08:55:18.631Z,18.40
2023-04-07T08:57:47.102Z,15.97
2023-04-07T09:00:15.732Z,12.00
2023-04-07T09:02:45.407Z,13.00
2023-04-07T09:05:16.990Z,11.60
2023-04-07T09:07:47.594Z,12.60
2023-04-07T09:10:16.561Z,11.73
2023-04-07T09:12:44.271Z,10.87
2023-04-07T09:15:11.878Z,9.30
2023-04-07T09:17:40.263Z,10.00
2023-04-07T09:20:08.413Z,9.63
2023-04-07T09:22:39.920Z,9.27
2023-04-07T09:25:18.053Z,9.03
2023-04-07T09:28:02.415Z,9.47
2023-04-07T09:30:32.532Z,9.13
2023-04-07T09:33:01.471Z,8.37
2023-04-07T09:35:29.795Z,8.53
2023-04-07T09:38:07.627Z,10.70
2023-04-07T09:40:37.365Z,10.47
2023-04-07T09:43:06.133Z,10.53
2023-04-07T09:45:36.965Z,9.37
2023-04-07T09:48:17.966Z,9.73
2023-04-07T09:50:49.321Z,9.93
2023-04-07T09:53:19.058Z,9.43
2023-04-07T09:55:47.877Z,10.57
2023-04-07T09:58:18.855Z,9.77
2023-04-07T10:00:47.164Z,11.90
2023-04-07T10:03:15.696Z,9.70
2023-04-07T10:05:45.401Z,10.53
2023-04-07T10:08:14.216Z,12.47
2023-04-07T10:10:43.805Z,8.47
2023-04-07T10:13:12.195Z,9.57
2023-04-07T10:15:39.997Z,7.83
2023-04-07T10:18:08.804Z,9.33
2023-04-07T10:20:42.209Z,8.47
2023-04-07T10:23:25.105Z,8.17
2023-04-07T10:25:56.607Z,10.40
2023-04-07T10:28:27.419Z,8.53
2023-04-07T10:30:55.563Z,8.30
2023-04-07T10:33:45.774Z,7.77
2023-04-07T10:36:13.808Z,8.07
2023-04-07T10:38:42.619Z,7.40
2023-04-07T10:41:33.290Z,8.63
2023-04-07T10:44:00.981Z,7.70
2023-04-07T10:46:54.682Z,6.70
2023-04-07T10:49:22.335Z,7.90
2023-04-07T10:52:11.749Z,7.30
2023-04-07T10:54:40.427Z,7.93
2023-04-07T10:57:14.930Z,6.73
2023-04-07T11:00:21.555Z,7.53
2023-04-07T11:02:49.459Z,6.60
2023-04-07T11:05:22.788Z,8.60
2023-04-07T11:16:18.854Z,5.93
2023-04-07T11:19:08.827Z,6.60
2023-04-07T11:22:30.048Z,6.77
2023-04-07T11:24:58.694Z,8.13
2023-04-07T11:27:27.259Z,9.13
2023-04-07T11:29:55.318Z,7.07
2023-04-07T11:32:29.795Z,7.13
2023-04-07T11:34:57.655Z,7.80
2023-04-07T11:37:27.127Z,7.60
2023-04-07T11:39:56.602Z,6.00
2023-04-07T11:42:40.457Z,6.20
2023-04-07T11:45:19.481Z,7.37
2023-04-07T11:47:47.782Z,6.07
2023-04-07T11:50:15.551Z,7.33
2023-04-07T11:52:45.315Z,6.83
2023-04-07T11:55:24.431Z,6.20
2023-04-07T11:57:52.493Z,6.60
2023-04-07T12:00:20.398Z,5.60
2023-04-07T12:02:48.237Z,6.63
2023-04-07T12:05:16.113Z,6.17
2023-04-07T12:07:54.073Z,16.53
2023-04-07T12:10:23.586Z,51.50
2023-04-07T12:12:55.536Z,5.13
2023-04-07T12:15:24.000Z,5.13
2023-04-07T12:17:51.649Z,5.50
2023-04-07T12:20:19.271Z,4.83
2023-04-07T12:22:47.236Z,4.83
2023-04-07T12:25:14.879Z,6.63
2023-04-07T12:27:43.600Z,5.63
2023-04-07T12:30:12.974Z,6.83
2023-04-07T12:32:41.096Z,5.77
2023-04-07T12:35:08.986Z,4.67
2023-04-07T12:37:37.368Z,4.60
2023-04-07T12:40:05.377Z,4.80
2023-04-07T12:42:32.977Z,7.27
2023-04-07T12:45:00.723Z,4.93
2023-04-07T12:47:28.314Z,4.67
2023-04-07T12:49:56.248Z,4.20
2023-04-07T12:52:23.776Z,4.90
2023-04-07T12:54:51.497Z,4.10
2023-04-07T12:57:19.269Z,4.13
2023-04-07T12:59:49.280Z,4.57
2023-04-07T13:02:19.133Z,6.20
2023-04-07T13:04:47.361Z,5.57
2023-04-07T13:07:15.160Z,3.50
2023-04-07T13:09:46.047Z,4.03
2023-04-07T13:12:13.716Z,4.67
2023-04-07T13:14:52.947Z,4.40
2023-04-07T13:17:25.291Z,4.23
2023-04-07T13:19:52.943Z,3.90
2023-04-07T13:22:22.085Z,4.80
2023-04-07T13:24:51.958Z,4.80
